Time;durP1;ratioP1;P1;durP2;ratioP2;P2;SDS_P1;SDS_P2;PMS_P1;PMS_P2;Temp;Humidity;BMP_temperature;BMP_pressure;BME280_temperature;BME280_humidity;BME280_pressure;Samples;Min_cycle;Max_cycle;Signal;HPM_P1;HPM_P2
2024/04/04 00:00:10;;;;;;;12.35;5.15;;;8.60;99.90;;;13.68;59.65;98811.50;5071969;28;20040;-79
2024/04/04 00:02:40;;;;;;;12.85;5.55;;;8.60;99.90;;;13.68;59.53;98811.50;5072610;28;20505;-75
2024/04/04 00:05:09;;;;;;;9.25;4.10;;;8.60;99.90;;;13.63;59.77;98814.53;5072783;28;20048;-77
2024/04/04 00:07:36;;;;;;;10.32;4.35;;;8.60;99.90;;;13.67;60.09;98815.06;5070119;28;20655;-76
2024/04/04 00:10:03;;;;;;;10.75;4.72;;;8.60;99.90;;;13.64;60.14;98810.91;5090506;28;20086;-78
2024/04/04 00:12:30;;;;;;;17.02;5.32;;;8.60;99.90;;;13.65;59.97;98815.22;5072997;28;20130;-77
2024/04/04 00:14:58;;;;;;;8.38;4.43;;;8.60;99.90;;;13.63;60.10;98811.91;5068844;28;20123;-77
2024/04/04 00:17:26;;;;;;;9.40;4.32;;;8.60;99.90;;;13.66;60.08;98816.91;5073210;28;20040;-80
2024/04/04 00:19:53;;;;;;;11.70;4.85;;;8.60;99.90;;;13.65;60.15;98817.84;5073610;28;20470;-78
2024/04/04 00:22:20;;;;;;;13.98;4.93;;;8.60;99.90;;;13.63;60.04;98809.28;5073918;28;20501;-78
2024/04/04 00:24:48;;;;;;;12.52;5.45;;;8.60;99.90;;;13.65;59.79;98809.13;5073875;28;20048;-78
2024/04/04 00:27:14;;;;;;;11.23;4.43;;;8.60;99.90;;;13.63;60.12;98816.34;5073345;28;20127;-77
2024/04/04 00:29:42;;;;;;;10.93;4.90;;;8.60;99.90;;;13.62;60.05;98810.22;5068274;28;20036;-77
2024/04/04 00:32:09;;;;;;;11.02;4.75;;;8.60;99.90;;;13.63;60.33;98804.03;5078657;28;20405;-77
2024/04/04 00:34:37;;;;;;;11.48;4.18;;;8.50;99.90;;;13.63;60.05;98803.19;5073588;28;20147;-78
2024/04/04 00:37:06;;;;;;;14.80;4.57;;;8.50;99.90;;;13.59;60.46;98796.53;5074192;28;20208;-77
2024/04/04 00:39:34;;;;;;;11.73;5.22;;;8.50;99.90;;;13.59;59.94;98805.25;5074154;28;20089;-76
2024/04/04 00:42:00;;;;;;;11.68;4.85;;;8.60;99.90;;;13.59;60.26;98805.25;5073749;28;20446;-78
2024/04/04 00:44:28;;;;;;;15.43;4.90;;;8.50;99.90;;;13.57;59.96;98815.03;5072728;28;20120;-77
2024/04/04 00:46:54;;;;;;;9.85;4.75;;;8.50;99.90;;;13.55;60.00;98818.78;5073199;28;20131;-78
2024/04/04 00:49:22;;;;;;;12.32;5.13;;;8.50;99.90;;;13.58;60.58;98813.25;5089910;28;20122;-78
2024/04/04 00:51:50;;;;;;;10.70;4.53;;;8.50;99.90;;;13.52;59.97;98809.38;5085016;28;20409;-78
2024/04/04 00:54:19;;;;;;;10.93;4.80;;;8.50;99.90;;;13.49;60.27;98812.28;5072997;28;21656;-78
2024/04/04 00:56:46;;;;;;;11.65;4.75;;;8.50;99.90;;;13.48;60.12;98816.69;5073970;28;20177;-78
2024/04/04 00:59:13;;;;;;;9.63;4.32;;;8.50;99.90;;;13.50;60.47;98808.69;5073989;28;20078;-78
2024/04/04 01:01:41;;;;;;;8.90;4.10;;;8.50;99.90;;;13.50;60.55;98813.94;5073809;28;20382;-77
2024/04/04 01:04:09;;;;;;;12.65;4.65;;;8.50;99.90;;;13.50;60.13;98803.44;5064263;28;20040;-78
2024/04/04 01:06:38;;;;;;;9.60;4.38;;;8.50;99.90;;;13.57;60.26;98816.88;5072296;28;20606;-77
2024/04/04 01:09:07;;;;;;;11.38;4.25;;;8.50;99.90;;;13.56;59.90;98810.78;5070516;28;20079;-78
2024/04/04 01:11:34;;;;;;;14.43;4.40;;;8.50;99.90;;;13.54;60.11;98817.94;5060765;28;20067;-78
2024/04/04 01:14:02;;;;;;;16.48;5.53;;;8.40;99.90;;;13.53;59.95;98816.31;5077382;28;20055;-78
2024/04/04 01:16:28;;;;;;;8.07;4.15;;;8.40;99.90;;;13.54;60.32;98812.69;5077241;28;20131;-78
2024/04/04 01:18:56;;;;;;;11.82;4.30;;;8.40;99.90;;;13.50;59.79;98803.44;5076609;28;20101;-79
2024/04/04 01:21:22;;;;;;;7.90;4.43;;;8.40;99.90;;;13.46;60.23;98807.28;5086654;28;20082;-78
2024/04/04 01:23:51;;;;;;;12.02;4.20;;;8.40;99.90;;;13.45;60.68;98805.59;5076551;28;20047;-77
2024/04/04 01:26:18;;;;;;;13.75;3.92;;;8.40;99.90;;;13.43;59.97;98807.56;5076374;28;20194;-77
2024/04/04 01:28:45;;;;;;;12.23;4.28;;;8.40;99.90;;;13.41;60.44;98805.03;5082060;28;20524;-78
2024/04/04 01:31:13;;;;;;;9.88;3.50;;;8.40;99.90;;;13.43;60.20;98808.38;5106498;28;20044;-78
2024/04/04 01:33:41;;;;;;;9.65;3.97;;;8.40;99.90;;;13.42;60.23;98805.88;5076453;28;20524;-77
2024/04/04 01:36:08;;;;;;;12.73;4.15;;;8.40;99.90;;;13.44;60.66;98803.94;5065310;28;20040;-78
2024/04/04 01:38:35;;;;;;;7.53;3.60;;;8.40;99.90;;;13.42;60.40;98801.44;5091340;28;20064;-78
2024/04/04 01:41:03;;;;;;;8.65;3.88;;;8.40;99.90;;;13.42;60.49;98811.13;5069816;28;20049;-77
2024/04/04 01:43:31;;;;;;;8.80;3.67;;;8.40;99.90;;;13.45;60.58;98818.75;5066242;28;20055;-76
2024/04/04 01:45:57;;;;;;;11.38;3.70;;;8.40;99.90;;;13.45;60.44;98805.59;5076050;28;20128;-77
2024/04/04 01:48:25;;;;;;;13.18;4.07;;;8.40;99.90;;;13.45;59.99;98800.34;5077241;28;20051;-78
2024/04/04 01:50:52;;;;;;;7.43;3.42;;;8.30;99.90;;;13.43;60.40;98789.16;5072561;28;20534;-77
2024/04/04 01:53:19;;;;;;;6.07;3.20;;;8.40;99.90;;;13.43;60.10;98786.50;5076940;28;20119;-78
2024/04/04 01:55:46;;;;;;;7.93;3.60;;;8.40;99.90;;;13.43;59.77;98789.16;5059812;28;20151;-76
2024/04/04 01:58:15;;;;;;;9.23;4.00;;;8.40;99.90;;;13.47;60.38;98785.25;5087955;28;20118;-77
2024/04/04 02:00:41;;;;;;;10.27;3.42;;;8.40;99.90;;;13.50;60.38;98796.34;5071801;28;20056;-79
2024/04/04 02:03:11;;;;;;;11.23;3.60;;;8.30;99.90;;;13.55;60.05;98792.50;5072396;28;20128;-78
2024/04/04 02:05:38;;;;;;;9.75;4.25;;;8.30;99.90;;;13.56;60.03;98792.38;5072347;28;20520;-77
2024/04/04 02:08:06;;;;;;;10.32;3.90;;;8.30;99.90;;;13.52;59.92;98786.53;5051982;28;20149;-77
2024/04/04 02:10:33;;;;;;;8.95;4.03;;;8.30;99.90;;;13.51;59.46;98794.56;5057705;28;20470;-78
2024/04/04 02:13:02;;;;;;;10.15;4.10;;;8.30;99.90;;;13.50;60.14;98798.97;5072885;28;20049;-78
2024/04/04 02:15:30;;;;;;;10.10;4.30;;;8.30;99.90;;;13.47;59.73;98788.72;5076102;28;20055;-78
2024/04/04 02:17:58;;;;;;;9.57;3.65;;;8.30;99.90;;;13.42;59.65;98775.16;5075902;28;20067;-78
2024/04/04 02:20:25;;;;;;;10.75;3.72;;;8.30;99.90;;;13.42;60.04;98782.22;5076573;28;20112;-78
2024/04/04 02:22:52;;;;;;;13.13;4.20;;;8.30;99.90;;;13.40;60.15;98776.28;5075025;28;20456;-78
2024/04/04 02:25:19;;;;;;;7.13;3.35;;;8.30;99.90;;;13.34;59.74;98772.34;5069072;28;20078;-77
2024/04/04 02:27:46;;;;;;;7.63;3.15;;;8.20;99.90;;;13.32;59.84;98773.47;5080723;28;20140;-78
2024/04/04 02:30:13;;;;;;;9.57;3.50;;;8.30;99.90;;;13.29;60.46;98773.72;5080457;28;20123;-76
2024/04/04 02:32:42;;;;;;;8.45;3.78;;;8.20;99.90;;;13.28;60.25;98774.69;5076815;28;20087;-77
2024/04/04 02:35:08;;;;;;;8.38;3.47;;;8.20;99.90;;;13.24;60.26;98781.16;5076090;28;20044;-77
2024/04/04 02:37:36;;;;;;;8.80;3.60;;;8.20;99.90;;;13.22;60.62;98783.09;5075622;28;20052;-78
2024/04/04 02:40:03;;;;;;;9.45;3.30;;;8.20;99.90;;;13.23;60.05;98784.78;5074915;28;20040;-78
2024/04/04 02:42:31;;;;;;;14.77;3.92;;;8.20;99.90;;;13.21;60.67;98782.25;5074900;28;20048;-80
2024/04/04 02:44:58;;;;;;;11.02;3.97;;;8.20;99.90;;;13.23;60.32;98776.88;5076237;28;20083;-78
2024/04/04 02:47:25;;;;;;;7.15;3.28;;;8.20;99.90;;;13.24;60.56;98770.66;5075797;28;20123;-78
2024/04/04 02:49:54;;;;;;;9.20;3.47;;;8.10;99.90;;;13.28;60.56;98774.69;5073051;28;20106;-78
2024/04/04 02:52:21;;;;;;;12.07;3.55;;;8.20;99.90;;;13.31;60.63;98771.78;5079716;28;20132;-78
2024/04/04 02:54:50;;;;;;;6.72;3.13;;;8.20;99.90;;;13.30;60.36;98775.41;5076616;28;20082;-79
2024/04/04 02:57:18;;;;;;;6.65;3.55;;;8.20;99.90;;;13.32;60.40;98778.72;5059712;28;20136;-79
2024/04/04 02:59:44;;;;;;;9.65;3.70;;;8.20;99.90;;;13.37;60.15;98776.53;5077041;28;20428;-79
2024/04/04 03:02:12;;;;;;;7.78;3.60;;;8.20;99.90;;;13.37;60.11;98768.66;5074724;28;20047;-79
2024/04/04 03:04:39;;;;;;;6.93;3.28;;;8.20;99.90;;;13.40;60.24;98763.13;5069505;28;20048;-79
2024/04/04 03:07:08;;;;;;;9.50;4.07;;;8.10;99.90;;;13.42;59.61;98764.66;5073537;28;20075;-79
2024/04/04 03:09:35;;;;;;;7.50;3.65;;;8.20;99.90;;;13.42;59.69;98769.06;5073657;28;20106;-78
2024/04/04 03:12:02;;;;;;;12.02;3.58;;;8.10;99.90;;;13.40;60.22;98769.19;5073747;28;20082;-80
2024/04/04 03:14:30;;;;;;;6.95;3.40;;;8.20;99.90;;;13.39;60.13;98770.16;5073929;28;20043;-78
2024/04/04 03:16:57;;;;;;;11.25;3.97;;;8.10;99.90;;;13.39;59.71;98766.72;5073250;28;20493;-78
2024/04/04 03:19:24;;;;;;;10.27;3.30;;;8.10;99.90;;;13.38;59.86;98771.13;5072811;28;20040;-78
2024/04/04 03:21:51;;;;;;;7.05;3.80;;;8.10;99.90;;;13.42;60.18;98769.06;5073814;28;20039;-77
2024/04/04 03:24:19;;;;;;;9.68;3.22;;;8.10;99.90;;;13.45;59.96;98771.44;5072946;28;20498;-78
2024/04/04 03:26:46;;;;;;;8.18;3.08;;;8.10;99.90;;;13.44;59.98;98769.75;5073671;28;20123;-79
2024/04/04 03:29:13;;;;;;;7.93;3.35;;;8.10;99.90;;;13.51;59.97;98773.50;5073289;28;20044;-78
2024/04/04 03:31:40;;;;;;;8.50;3.55;;;8.10;99.90;;;13.51;59.86;98776.16;5072602;28;20068;-79
2024/04/04 03:34:07;;;;;;;10.93;3.10;;;8.10;99.90;;;13.50;60.00;98777.13;5072142;28;20056;-78
2024/04/04 03:36:34;;;;;;;11.38;3.33;;;8.00;99.90;;;13.46;59.55;98771.31;5074003;28;20082;-78
2024/04/04 03:39:02;;;;;;;5.68;3.40;;;8.00;99.90;;;13.43;59.56;98770.75;5074387;28;20075;-78
2024/04/04 03:41:31;;;;;;;8.00;3.20;;;8.00;99.90;;;13.41;59.46;98767.41;5055807;28;20075;-77
2024/04/04 03:43:58;;;;;;;8.10;3.38;;;8.00;99.90;;;13.40;59.76;98771.81;5072164;28;20413;-77
2024/04/04 03:46:26;;;;;;;6.07;2.80;;;8.00;99.90;;;13.37;60.10;98772.09;5073283;28;20044;-78
2024/04/04 03:48:53;;;;;;;7.78;3.03;;;8.10;99.90;;;13.34;59.98;98777.59;5072440;28;20100;-77
2024/04/04 03:51:20;;;;;;;9.77;3.47;;;8.10;99.90;;;13.32;60.29;98774.28;5072100;28;20084;-77
2024/04/04 03:53:47;;;;;;;7.35;3.15;;;8.00;99.90;;;13.35;59.77;98778.44;5072450;28;20044;-77
2024/04/04 03:56:14;;;;;;;9.27;2.80;;;8.10;99.90;;;13.34;59.76;98769.72;5072529;28;20514;-77
2024/04/04 03:58:43;;;;;;;8.48;3.63;;;8.10;99.90;;;13.35;59.78;98784.53;5071553;28;20082;-77
2024/04/04 04:01:09;;;;;;;10.02;3.70;;;8.10;99.90;;;13.34;59.91;98779.41;5086706;28;20128;-79
2024/04/04 04:03:37;;;;;;;7.90;3.90;;;8.10;99.90;;;13.36;59.77;98780.13;5070043;28;20368;-79
2024/04/04 04:06:04;;;;;;;12.70;4.38;;;8.10;99.90;;;13.31;60.24;98777.88;5056886;28;20119;-78
2024/04/04 04:08:32;;;;;;;10.23;4.75;;;8.10;99.90;;;13.23;59.92;98784.78;5049485;28;20428;-78
2024/04/04 04:10:59;;;;;;;8.70;2.88;;;8.00;99.90;;;13.18;59.86;98785.16;5071309;28;20074;-78
2024/04/04 04:13:26;;;;;;;14.27;3.90;;;8.00;99.90;;;13.10;60.40;98778.91;5073357;28;20156;-78
2024/04/04 04:15:57;;;;;;;12.50;3.38;;;8.00;99.90;;;13.06;60.21;98778.31;5072757;28;20559;-79
2024/04/04 04:18:26;;;;;;;7.20;2.42;;;8.10;99.90;;;13.06;60.32;98777.47;5072565;28;20090;-78
2024/04/04 04:23:39;;;;;;;6.35;2.60;;;8.10;99.90;;;13.06;60.43;98796.69;5093771;28;20052;-80
2024/04/04 04:26:06;;;;;;;8.45;3.05;;;8.00;99.90;;;13.07;60.61;98789.66;5073119;28;20126;-80
2024/04/04 04:28:34;;;;;;;6.30;2.72;;;8.00;99.90;;;13.13;60.61;98808.38;5053057;28;20113;-78
2024/04/04 04:31:03;;;;;;;10.85;4.05;;;8.00;99.90;;;13.14;60.61;98811.84;5063172;28;20131;-78
2024/04/04 04:33:39;;;;;;;11.45;3.78;;;8.00;99.90;;;13.13;60.33;98810.19;5088590;28;20058;-77
2024/04/04 04:36:06;;;;;;;8.82;3.33;;;8.00;99.90;;;13.13;60.56;98790.00;5055211;28;20036;-78
2024/04/04 04:38:34;;;;;;;8.13;3.08;;;8.00;99.90;;;13.13;60.23;98794.41;5069834;28;20048;-78
2024/04/04 04:41:04;;;;;;;11.05;2.85;;;8.00;99.90;;;13.09;60.50;98785.97;5071525;28;20089;-79
2024/04/04 04:43:32;;;;;;;8.50;2.83;;;8.00;99.90;;;13.14;60.47;98802.16;5074904;28;20093;-79
2024/04/04 04:45:58;;;;;;;8.50;2.70;;;7.90;99.90;;;13.18;60.52;98807.97;5070891;28;20118;-78
2024/04/04 04:48:27;;;;;;;8.48;3.33;;;7.90;99.90;;;13.22;60.03;98815.47;5071581;28;20060;-78
2024/04/04 04:50:54;;;;;;;8.13;3.60;;;7.90;99.90;;;13.25;60.00;98809.97;5064765;28;20480;-79
2024/04/04 04:53:22;;;;;;;15.35;4.05;;;7.90;99.90;;;13.28;59.87;98808.84;5070189;28;20120;-79
2024/04/04 04:55:49;;;;;;;8.45;3.40;;;7.90;99.90;;;13.30;59.55;98810.41;5071539;28;20127;-79
2024/04/04 04:58:16;;;;;;;10.18;3.42;;;7.90;99.90;;;13.33;60.27;98801.41;5072064;28;20073;-79
2024/04/04 05:00:43;;;;;;;8.57;3.08;;;7.90;99.90;;;13.34;59.70;98793.38;5071341;28;20079;-78
2024/04/04 05:03:11;;;;;;;8.25;2.90;;;7.90;99.90;;;13.36;59.56;98803.78;5071310;28;20136;-78
2024/04/04 05:05:38;;;;;;;15.18;4.63;;;7.90;99.90;;;13.37;59.97;98815.97;5076802;28;20053;-78
2024/04/04 05:08:07;;;;;;;12.85;3.72;;;7.90;99.90;;;13.38;59.38;98807.09;5081390;28;20497;-76
2024/04/04 05:10:34;;;;;;;8.43;3.58;;;7.90;99.90;;;13.39;59.65;98814.03;5070769;28;20127;-77
2024/04/04 05:13:01;;;;;;;9.23;3.88;;;7.90;99.90;;;13.37;59.48;98829.13;5068249;28;20616;-76
2024/04/04 05:15:28;;;;;;;9.68;3.30;;;7.90;99.90;;;13.36;59.95;98837.97;5069969;28;20509;-77
2024/04/04 05:17:56;;;;;;;8.40;3.30;;;7.90;99.90;;;13.36;59.82;98838.78;5068610;28;20121;-76
2024/04/04 05:20:22;;;;;;;14.57;3.60;;;7.90;99.90;;;13.35;59.35;98834.50;5071581;28;20041;-76
2024/04/04 05:22:51;;;;;;;10.13;2.58;;;7.90;99.90;;;13.38;59.69;98849.16;5070693;28;20387;-76
2024/04/04 05:25:18;;;;;;;9.90;2.92;;;8.00;99.90;;;13.35;59.35;98854.69;5070955;28;20529;-76
2024/04/04 05:27:45;;;;;;;9.80;3.63;;;8.00;99.90;;;13.36;60.06;98864.25;5071603;28;20048;-77
2024/04/04 05:30:14;;;;;;;7.40;3.20;;;8.00;99.90;;;13.37;59.25;98861.47;5054005;28;20052;-77
2024/04/04 05:32:42;;;;;;;10.40;3.30;;;8.00;99.90;;;13.36;59.38;98858.97;5071104;28;20131;-76
2024/04/04 05:35:08;;;;;;;10.05;3.83;;;8.00;99.90;;;13.33;59.57;98860.09;5069627;28;20136;-77
2024/04/04 05:37:37;;;;;;;8.63;3.08;;;8.10;99.90;;;13.31;59.46;98854.09;5075664;28;20189;-76
2024/04/04 05:40:08;;;;;;;5.78;2.67;;;8.10;99.90;;;13.34;59.42;98853.00;5087580;28;20192;-77
2024/04/04 05:42:36;;;;;;;6.70;3.17;;;8.10;99.90;;;13.37;59.19;98847.50;5076735;28;20119;-76
2024/04/04 05:45:04;;;;;;;8.88;3.38;;;8.10;99.90;;;13.38;59.62;98849.16;5063704;28;20159;-78
2024/04/04 05:47:31;;;;;;;9.68;4.65;;;8.10;99.90;;;13.36;59.20;98853.72;5076819;28;20137;-76
2024/04/04 05:49:59;;;;;;;13.82;3.67;;;8.10;99.90;;;13.35;59.27;98852.88;5070467;28;20486;-76
2024/04/04 05:52:26;;;;;;;6.45;2.78;;;8.10;99.90;;;13.34;59.64;98861.72;5070547;28;20052;-77
2024/04/04 05:54:54;;;;;;;9.32;3.15;;;8.10;99.90;;;13.31;59.92;98866.41;5073101;28;20044;-77
2024/04/04 05:57:23;;;;;;;6.82;3.30;;;8.00;99.90;;;13.29;59.65;98876.25;5069166;28;20040;-76
2024/04/04 05:59:49;;;;;;;12.05;3.67;;;8.00;99.90;;;13.25;59.19;98870.41;5066282;28;20127;-77
2024/04/04 06:02:17;;;;;;;6.40;3.38;;;8.10;99.90;;;13.25;59.82;98873.03;5055624;28;20048;-77
2024/04/04 06:04:44;;;;;;;11.02;4.10;;;8.10;99.90;;;13.23;59.25;98879.38;5068763;28;20036;-76
2024/04/04 06:07:12;;;;;;;15.18;4.40;;;8.10;99.90;;;13.24;59.82;98876.63;5064631;28;20413;-77
2024/04/04 06:09:39;;;;;;;12.07;3.40;;;8.20;99.90;;;13.31;59.84;98879.56;5072052;28;20472;-76
2024/04/04 06:12:07;;;;;;;11.45;4.25;;;8.30;99.90;;;13.36;59.78;98875.59;5073700;28;20140;-77
2024/04/04 06:14:35;;;;;;;12.65;3.22;;;8.40;99.90;;;13.43;59.68;98881.16;5074310;28;20457;-78
2024/04/04 06:17:03;;;;;;;11.93;4.18;;;8.40;99.90;;;13.49;59.47;98884.09;5074358;28;20040;-77
2024/04/04 06:19:29;;;;;;;10.88;4.45;;;8.60;99.90;;;13.51;59.56;98876.91;5074855;28;20101;-77
2024/04/04 06:21:57;;;;;;;12.23;4.07;;;8.80;99.90;;;13.62;59.23;98883.88;5059590;28;20163;-77
2024/04/04 06:24:24;;;;;;;11.45;3.40;;;8.90;99.90;;;13.70;59.77;98881.41;5067445;28;20490;-77
2024/04/04 06:26:51;;;;;;;7.60;3.33;;;9.10;99.90;;;13.84;59.02;98883.66;5073445;28;20059;-78
2024/04/04 06:29:18;;;;;;;7.55;3.90;;;9.30;99.90;;;13.95;58.84;98885.38;5073838;28;20080;-78
2024/04/04 06:31:48;;;;;;;8.82;4.15;;;9.40;99.90;;;14.07;59.18;98888.72;5056760;28;20060;-77
2024/04/04 06:34:16;;;;;;;8.38;3.78;;;9.60;99.90;;;14.19;58.40;98885.03;5072400;28;20063;-78
2024/04/04 06:36:43;;;;;;;10.65;3.58;;;9.80;99.90;;;14.34;58.25;98889.78;5072500;28;20052;-77
2024/04/04 06:39:12;;;;;;;7.93;3.33;;;10.10;99.90;;;14.50;58.43;98884.81;5073040;28;20456;-78
2024/04/04 06:41:40;;;;;;;9.35;3.33;;;10.30;99.90;;;14.60;57.94;98890.06;5067204;28;20414;-77
2024/04/04 06:44:06;;;;;;;7.65;2.33;;;10.20;99.90;;;14.65;57.40;98885.25;5073917;28;20044;-77
2024/04/04 06:46:34;;;;;;;9.52;3.35;;;10.20;99.90;;;14.68;57.35;98886.75;5073934;28;20062;-77
2024/04/04 06:49:02;;;;;;;7.13;3.00;;;10.20;99.90;;;14.70;57.48;98892.72;5074353;28;20105;-77
2024/04/04 06:51:30;;;;;;;11.05;3.03;;;10.20;99.90;;;14.74;57.17;98899.38;5073382;28;20582;-78
2024/04/04 06:53:56;;;;;;;8.65;2.92;;;10.20;99.90;;;14.78;57.24;98898.13;5073100;28;20067;-78
2024/04/04 06:56:24;;;;;;;7.35;2.58;;;10.20;99.90;;;14.81;57.12;98887.31;5057269;28;20048;-77
2024/04/04 06:58:51;;;;;;;8.70;2.55;;;10.20;99.90;;;14.86;57.03;98885.91;5055525;28;20493;-78
2024/04/04 07:01:18;;;;;;;8.13;2.90;;;10.30;99.90;;;14.89;56.63;98898.81;5072065;28;20079;-78
2024/04/04 07:03:45;;;;;;;6.78;2.90;;;10.40;99.90;;;14.94;56.82;98887.84;5073169;28;20158;-77
2024/04/04 07:06:13;;;;;;;6.88;3.20;;;10.40;99.90;;;14.99;56.31;98891.72;5052850;28;20422;-78
2024/04/04 07:08:41;;;;;;;8.88;2.97;;;10.50;99.90;;;15.04;56.24;98894.78;5072505;28;20044;-77
2024/04/04 07:11:09;;;;;;;6.75;3.03;;;10.60;99.90;;;15.13;56.53;98902.81;5072900;28;20055;-77
2024/04/04 07:13:38;;;;;;;7.38;3.00;;;10.70;99.90;;;15.21;56.17;98893.22;5073626;28;20132;-77
2024/04/04 07:16:07;;;;;;;12.57;2.90;;;10.80;99.90;;;15.33;56.22;98897.34;5073466;28;20048;-77
2024/04/04 07:18:34;;;;;;;8.80;3.63;;;11.00;99.90;;;15.47;56.14;98903.97;5073542;28;20131;-77
2024/04/04 07:21:02;;;;;;;8.50;3.30;;;11.10;99.90;;;15.58;55.93;98899.38;5073082;28;20086;-77
2024/04/04 07:23:30;;;;;;;6.60;3.10;;;11.10;99.90;;;15.67;55.68;98904.78;5056509;28;20509;-76
2024/04/04 07:25:57;;;;;;;7.05;3.30;;;11.30;99.90;;;15.71;55.37;98908.81;5056075;28;20126;-76
2024/04/04 07:28:25;;;;;;;8.57;2.85;;;11.40;99.90;;;15.83;55.25;98916.38;5072948;28;20044;-76
2024/04/04 07:30:51;;;;;;;9.55;3.25;;;11.80;99.90;;;15.91;55.02;98919.13;5073363;28;20127;-77
2024/04/04 07:33:19;;;;;;;5.95;2.55;;;11.60;99.90;;;16.02;54.94;98926.03;5075506;28;20557;-77
2024/04/04 07:35:46;;;;;;;8.35;2.72;;;11.70;99.90;;;16.09;54.26;98933.22;5070088;28;20091;-77
2024/04/04 07:38:14;;;;;;;6.93;2.60;;;11.80;99.90;;;16.18;54.70;98934.13;5069771;28;20510;-77
2024/04/04 07:40:42;;;;;;;7.15;2.72;;;11.90;99.90;;;16.26;54.54;98944.81;5069416;28;20131;-76
2024/04/04 07:43:11;;;;;;;10.25;2.45;;;11.90;99.90;;;16.32;54.49;98943.38;5069476;28;20103;-77
2024/04/04 07:45:39;;;;;;;5.95;2.42;;;11.90;99.90;;;16.38;54.53;98948.91;5069300;28;20087;-77
2024/04/04 07:48:10;;;;;;;8.40;2.25;;;11.90;99.90;;;16.43;54.16;98953.75;5069690;28;20068;-77
2024/04/04 07:50:37;;;;;;;8.32;2.75;;;11.90;99.90;;;16.47;54.04;98965.66;5055178;28;20502;-77
2024/04/04 07:53:06;;;;;;;9.10;2.10;;;12.00;99.90;;;16.50;53.86;98962.72;5069257;28;20127;-77
2024/04/04 07:55:33;;;;;;;5.53;2.28;;;12.00;99.90;;;16.60;53.72;98979.38;5069025;28;20083;-76
2024/04/04 07:58:02;;;;;;;8.05;2.45;;;12.20;99.90;;;16.67;53.83;98983.09;5069273;28;20045;-77
2024/04/04 08:00:29;;;;;;;6.93;2.55;;;12.40;99.90;;;16.79;53.47;98984.56;5069186;28;20048;-77
2024/04/04 08:02:59;;;;;;;8.00;2.35;;;12.50;99.90;;;16.88;52.99;98986.31;5068989;28;20128;-77
2024/04/04 08:05:28;;;;;;;6.07;1.80;;;12.60;99.90;;;16.93;52.62;98985.84;5068845;28;20510;-77
2024/04/04 08:07:56;;;;;;;4.68;1.98;;;12.60;99.90;;;16.95;52.41;98989.19;5068363;28;20480;-78
2024/04/04 08:10:22;;;;;;;4.50;1.98;;;12.70;99.90;;;16.98;52.36;98992.34;5069290;28;20044;-77
2024/04/04 08:12:51;;;;;;;8.48;2.55;;;12.70;99.90;;;17.06;52.40;98995.06;5068407;28;20071;-76
2024/04/04 08:15:19;;;;;;;6.72;2.00;;;12.70;99.90;;;17.16;51.90;98996.81;5069004;28;20071;-76
2024/04/04 08:17:48;;;;;;;10.63;2.33;;;12.80;99.90;;;17.19;51.64;98993.88;5068494;28;20091;-77
2024/04/04 08:20:15;;;;;;;7.00;2.25;;;12.70;99.90;;;17.26;51.43;98997.53;5068821;28;20143;-77
2024/04/04 08:22:43;;;;;;;5.55;2.05;;;12.90;99.90;;;17.36;51.23;99001.78;5068106;28;20127;-77
2024/04/04 08:25:10;;;;;;;4.15;1.80;;;13.10;99.90;;;17.50;50.83;99016.28;5056572;28;20128;-77
2024/04/04 08:27:38;;;;;;;5.10;2.10;;;13.10;98.20;;;17.57;51.02;99017.34;5075281;28;20059;-77
2024/04/04 08:30:06;;;;;;;6.53;2.15;;;13.20;99.40;;;17.68;50.69;99017.13;5069046;28;20091;-77
2024/04/04 08:32:35;;;;;;;5.78;1.95;;;13.40;99.30;;;17.78;50.11;99006.44;5068019;28;20044;-77
2024/04/04 08:35:06;;;;;;;5.05;1.92;;;13.60;97.80;;;17.89;49.85;99008.78;5068391;28;20052;-77
2024/04/04 08:37:34;;;;;;;7.20;2.00;;;13.80;96.50;;;18.00;49.68;99016.50;5068341;28;20064;-77
2024/04/04 08:40:01;;;;;;;10.73;2.97;;;13.90;96.00;;;18.09;49.55;99019.03;5067924;28;20494;-77
2024/04/04 08:42:28;;;;;;;6.38;2.30;;;13.90;95.90;;;18.20;49.78;99015.28;5065139;28;20494;-76
2024/04/04 08:44:57;;;;;;;5.70;1.95;;;14.00;95.80;;;18.28;49.22;99025.06;5063424;28;20135;-77
2024/04/04 08:47:26;;;;;;;9.52;2.30;;;13.90;94.40;;;18.30;48.51;99023.09;5068622;28;20098;-77
2024/04/04 08:49:55;;;;;;;7.35;2.13;;;13.70;94.80;;;18.29;48.60;99019.63;5064738;28;20459;-77
2024/04/04 08:52:23;;;;;;;7.97;2.35;;;13.80;95.50;;;18.36;48.95;99014.53;5067228;28;20041;-77
2024/04/04 08:54:50;;;;;;;5.20;1.42;;;13.90;95.40;;;18.48;48.41;99016.72;5066903;28;20594;-76
2024/04/04 08:57:20;;;;;;;9.48;1.98;;;14.20;94.40;;;18.62;48.43;99012.66;5068018;28;20091;-77
2024/04/04 08:59:55;;;;;;;5.70;1.70;;;14.40;93.90;;;18.73;48.08;99009.72;5071985;28;20119;-78
2024/04/04 09:02:22;;;;;;;7.90;2.50;;;14.70;93.20;;;18.87;47.55;99014.38;5054449;28;20100;-77
2024/04/04 09:04:49;;;;;;;7.50;2.60;;;14.90;90.90;;;18.99;47.13;99017.56;5063505;28;20561;-77
2024/04/04 09:07:18;;;;;;;7.45;1.88;;;15.00;89.80;;;19.07;46.80;99021.06;5088376;28;20168;-77
2024/04/04 09:09:46;;;;;;;3.25;1.83;;;14.90;89.90;;;19.16;46.68;99021.91;5068014;28;20040;-77
2024/04/04 09:12:17;;;;;;;8.50;2.63;;;15.00;89.90;;;19.29;46.61;99022.25;5068446;28;20069;-76
2024/04/04 09:14:56;;;;;;;7.70;2.35;;;15.20;89.40;;;19.26;46.99;99022.59;5068260;28;20059;-77
2024/04/04 09:17:23;;;;;;;5.25;2.10;;;15.10;89.10;;;19.27;46.51;99026.88;5067119;28;20104;-77
2024/04/04 09:19:54;;;;;;;7.60;2.00;;;15.20;88.80;;;19.28;46.81;99020.59;5068351;28;20098;-76
2024/04/04 09:22:25;;;;;;;7.80;2.33;;;15.00;88.30;;;19.30;46.15;99017.78;5065184;28;20128;-76
2024/04/04 09:24:57;;;;;;;6.67;2.40;;;15.00;88.20;;;19.34;46.75;99016.44;5048291;28;20246;-77
2024/04/04 09:27:24;;;;;;;5.93;2.53;;;15.20;89.40;;;19.47;46.75;99024.78;5064667;28;20339;-77
2024/04/04 09:29:52;;;;;;;4.97;2.15;;;15.40;89.50;;;19.61;46.86;99013.50;5068061;28;20068;-77
2024/04/04 09:32:21;;;;;;;6.78;2.53;;;15.60;89.40;;;19.66;45.91;99000.53;5068707;28;20173;-77
2024/04/04 09:34:50;;;;;;;5.65;1.80;;;15.60;86.80;;;19.67;45.76;98994.22;5073048;28;20131;-76
2024/04/04 09:37:18;;;;;;;5.20;1.73;;;15.70;85.90;;;19.77;45.43;98999.34;5056957;28;20528;-76
2024/04/04 09:39:47;;;;;;;9.60;2.50;;;15.80;85.00;;;19.88;45.72;98999.84;5067532;28;20052;-76
2024/04/04 09:42:17;;;;;;;11.05;2.33;;;15.90;85.80;;;19.99;45.25;98996.81;5071321;28;20044;-76
2024/04/04 09:44:44;;;;;;;12.68;2.83;;;15.90;84.60;;;20.07;45.03;98995.97;5071806;28;20044;-77
2024/04/04 09:47:13;;;;;;;5.05;1.75;;;16.00;85.30;;;20.13;44.75;98990.81;5070127;28;20056;-77
2024/04/04 09:49:41;;;;;;;4.35;1.70;;;16.10;83.00;;;20.15;44.14;98988.78;5070844;28;20505;-77
2024/04/04 09:52:09;;;;;;;8.13;1.88;;;16.10;81.10;;;20.04;43.66;98981.22;5071255;28;20127;-77
2024/04/04 09:54:37;;;;;;;3.97;1.20;;;15.90;81.60;;;20.01;43.84;98978.88;5071418;28;20057;-77
2024/04/04 09:57:06;;;;;;;6.47;1.58;;;16.10;81.30;;;20.05;43.54;98974.91;5071341;28;20037;-77
2024/04/04 09:59:34;;;;;;;6.18;1.65;;;16.10;80.50;;;20.20;43.58;98975.84;5071050;28;20052;-77
2024/04/04 10:02:04;;;;;;;5.85;2.13;;;16.50;80.40;;;20.38;43.71;98978.31;5071072;28;20505;-77
2024/04/04 10:04:35;;;;;;;3.67;1.77;;;16.80;80.90;;;20.65;43.18;98964.50;5071770;28;20135;-77
2024/04/04 10:07:02;;;;;;;4.03;1.70;;;17.20;79.00;;;20.86;42.73;98971.03;5071516;28;20045;-78
2024/04/04 10:09:38;;;;;;;4.43;1.77;;;17.40;77.80;;;21.05;42.78;98970.56;5071182;28;20119;-77
2024/04/04 10:12:12;;;;;;;7.53;1.67;;;17.70;77.70;;;21.28;42.43;98983.91;5070822;28;20086;-77
2024/04/04 10:14:50;;;;;;;3.90;1.27;;;17.90;75.80;;;21.44;41.17;98984.59;5090097;28;20064;-77
2024/04/04 10:17:17;;;;;;;5.78;1.65;;;17.80;71.80;;;21.51;40.67;98987.38;5068342;28;20452;-76
2024/04/04 10:19:48;;;;;;;4.57;1.40;;;17.80;71.90;;;21.55;39.89;98983.34;5070453;28;20941;-76
2024/04/04 10:22:16;;;;;;;1.60;1.00;;;17.40;72.40;;;21.58;40.06;98983.81;5058538;28;20064;-77
2024/04/04 10:24:44;;;;;;;3.47;1.00;;;17.40;72.70;;;21.56;39.66;98990.34;5051099;28;20048;-77